Αρχική σελίδα
METAR-TAF:

METAR-TAF

Αεροδρόμια :

Tumbes, Περού

γεωγραφικό πλάτος: 03-33S, γεωγραφικό μήκος: 080-24W, υψόμετρο: 25 μ

Παρών καιρός

Η αναφορά έγινε 1 ώρα και 4 λεπτά πριν, στις 20:00 UTC
Άνεμος 8 kt από
Θερμοκρασία 21°C
Υγρασία 94%
Πίεση 1011 hPa
Ορατότητα 10 χλμ και άνω
Νεφοσκεπής σε ύψος 1500 πόδια

METAR: SPME 192000Z 32008KT 9999 OVC015 21/20 Q1011 RMK BIRD HAZARD RWY 32/14 PP000

Χρόνος: 16:04 (21:04 UTC)

Πρόγνωση Καιρού

Η αναφορά έγινε 4 ώρες και 4 λεπτά πριν, στις 17:00 UTC
Η πρόγνωση ισχύει από τις 19 στις 18 UTC έως τις 20 στις 18 UTC
Άνεμος 10 kt από Β/BΔ
Ορατότητα 10 χλμ και άνω
Αρκετά νέφη σε ύψος 1700 πόδια
Καθιστάμενος
από 19 στις 22 UTC έως τις 20 στις 01 UTC
Άνεμος 3 kt από μεταβλητές κατευθύνσεις
Αρκετά νέφη σε ύψος 1100 πόδια

TAF: SPME 191700Z 1918/2018 34010KT 9999 BKN017 TX28/1920Z TN21/2011Z BECMG 1922/2001 VRB03KT BKN011

Μετεωρολογικές αναφορές και προγνώσεις για περισσότερα από 4000 αεροδρόμια (δελτία METAR και TAF).

Οι διαθέσιμοι σταθμοί απεικονίζονται στο χάρτη με κίτρινες και κόκκινες κουκκίδες.

Μετακινήστε το ποντίκι πάνω από τις κουκκίδες για να δείτε το όνομα του σταθμού.

Στη συνέχεια, κάντε κλικ για να δείτε τις μετεωρολογικές αναφορές και τις προγνώσεις καιρού.

Για να αλλάξετε το χάρτη: κάντε κλικ στα πράσινα κουμπιά με τον μαύρο σταυρό για να ζουμάρετε, στο πράσινο κουμπί με την παύλα για να αφαιρέσετε το ζουμ ή στα πράσινα βέλη για να αντιπαραβάλλετε χάρτες.


METAR-TAF: